Airport View

Enter AWOS ICAO identifier for current METAR.

ex. KFNL

KHXD 171035Z AUTO 36018G25KT 10SM OVC021 08/05 A2994 RMK AO2

17 Nov 2019 10:37

Frequency: 121.4

Phone: 843-342-5072

Other Area AWOS: KARW - KNBC - KSVN - KSAV

TAF KNBC 1521/1621 01010KT 9999 OVC006 QNH2990INS TEMPO 1521/1603 6000 RA BR BECMG 1603/1605 36015G25KT 8000 -RA BR BKN006 OVC008 QNH2989INS FM162000 34015KT 9999 BKN015 OVC030 QNH2995INS T15/1518Z T08/1618Z